createdAt,value
2018-12-14T00:01:34.778Z,4.80
2018-12-14T00:04:06.144Z,4.80
2018-12-14T00:06:37.463Z,4.90
2018-12-14T00:09:08.293Z,4.90
2018-12-14T00:11:45.404Z,4.90
2018-12-14T00:14:11.820Z,5.00
2018-12-14T00:16:42.539Z,5.00
2018-12-14T00:19:13.253Z,5.00
2018-12-14T00:21:44.093Z,5.00
2018-12-14T00:24:14.779Z,4.90
2018-12-14T00:26:45.515Z,5.00
2018-12-14T00:29:16.296Z,5.00
2018-12-14T00:31:48.852Z,4.90
2018-12-14T00:34:19.667Z,4.90
2018-12-14T00:36:50.451Z,4.90
2018-12-14T00:39:21.222Z,4.80
2018-12-14T00:41:52.152Z,4.80
2018-12-14T00:44:23.175Z,4.70
2018-12-14T00:46:53.982Z,4.70
2018-12-14T00:49:25.155Z,4.70
2018-12-14T00:51:56.304Z,4.60
2018-12-14T00:54:27.270Z,4.60
2018-12-14T00:56:58.400Z,4.50
2018-12-14T00:59:29.238Z,4.50
2018-12-14T01:02:01.506Z,4.40
2018-12-14T01:04:32.468Z,4.40
2018-12-14T01:07:04.797Z,4.40
2018-12-14T01:09:35.793Z,4.30
2018-12-14T01:12:06.443Z,4.30
2018-12-14T01:14:38.827Z,4.30
2018-12-14T01:17:09.579Z,4.20
2018-12-14T01:19:40.434Z,4.30
2018-12-14T01:22:11.386Z,4.30
2018-12-14T01:24:42.046Z,4.30
2018-12-14T01:27:12.769Z,4.40
2018-12-14T01:29:44.015Z,4.40
2018-12-14T01:32:14.751Z,4.50
2018-12-14T01:34:45.523Z,4.50
2018-12-14T01:37:16.311Z,4.50
2018-12-14T01:39:46.982Z,4.50
2018-12-14T01:42:17.771Z,4.60
2018-12-14T01:44:48.450Z,4.60
2018-12-14T01:47:19.199Z,4.60
2018-12-14T01:49:50.358Z,4.70
2018-12-14T01:52:22.553Z,4.60
2018-12-14T01:54:53.757Z,4.60
2018-12-14T01:57:24.999Z,4.60
2018-12-14T01:59:55.734Z,4.60
2018-12-14T02:02:26.856Z,4.60
2018-12-14T02:04:58.779Z,4.60
2018-12-14T02:07:29.805Z,4.60
2018-12-14T02:10:00.846Z,4.60
2018-12-14T02:12:31.968Z,4.60
2018-12-14T02:15:02.888Z,4.70
2018-12-14T02:17:33.777Z,4.70
2018-12-14T02:20:05.496Z,4.70
2018-12-14T02:22:36.261Z,4.70
2018-12-14T02:25:07.768Z,4.70
2018-12-14T02:27:38.552Z,4.70
2018-12-14T02:30:49.143Z,4.70
2018-12-14T02:33:20.038Z,4.70
2018-12-14T02:35:50.979Z,4.70
2018-12-14T02:38:21.950Z,4.70
2018-12-14T02:40:52.697Z,4.70
2018-12-14T02:43:24.287Z,4.80
2018-12-14T02:45:55.056Z,4.80
2018-12-14T02:48:26.314Z,5.80
2018-12-14T02:50:57.450Z,4.80
2018-12-14T02:53:28.160Z,4.80
2018-12-14T02:55:58.887Z,4.80
2018-12-14T02:58:29.810Z,4.80
2018-12-14T03:01:00.875Z,4.80
2018-12-14T03:03:31.939Z,4.90
2018-12-14T03:06:02.626Z,4.90
2018-12-14T03:08:33.484Z,4.90
2018-12-14T03:11:04.253Z,4.90
2018-12-14T03:13:34.913Z,4.90
2018-12-14T03:16:05.824Z,4.90
2018-12-14T03:18:37.623Z,4.90
2018-12-14T03:21:08.291Z,4.90
2018-12-14T03:23:39.380Z,4.90
2018-12-14T03:26:10.703Z,5.00
2018-12-14T03:28:41.480Z,5.00
2018-12-14T03:31:12.468Z,5.00
2018-12-14T03:33:43.170Z,5.00
2018-12-14T03:36:13.884Z,5.00
2018-12-14T03:38:44.880Z,5.10
2018-12-14T03:41:16.288Z,5.10
2018-12-14T03:43:47.744Z,5.10
2018-12-14T03:46:18.386Z,5.10
2018-12-14T03:48:49.253Z,5.10
2018-12-14T03:51:24.094Z,5.10
2018-12-14T03:53:54.804Z,5.10
2018-12-14T03:56:26.021Z,5.20
2018-12-14T03:58:57.227Z,5.10
2018-12-14T04:01:28.132Z,5.10
2018-12-14T04:03:58.815Z,5.10
2018-12-14T04:06:29.659Z,5.10
2018-12-14T04:09:00.373Z,5.10
2018-12-14T04:11:31.052Z,5.20
2018-12-14T04:14:02.024Z,5.10
2018-12-14T04:16:33.832Z,5.20
2018-12-14T04:19:05.030Z,5.20
2018-12-14T04:21:36.523Z,5.10
2018-12-14T04:24:07.242Z,5.20
2018-12-14T04:26:37.987Z,5.20
2018-12-14T04:29:08.679Z,5.20
2018-12-14T04:31:39.393Z,5.20
2018-12-14T04:34:10.168Z,5.10
2018-12-14T04:36:40.854Z,5.20
2018-12-14T04:39:11.806Z,5.10
2018-12-14T04:41:42.459Z,5.10
2018-12-14T04:44:13.264Z,5.10
2018-12-14T04:46:44.048Z,5.10
2018-12-14T04:49:14.732Z,5.10
2018-12-14T04:51:45.529Z,5.10
2018-12-14T04:54:16.934Z,5.10
2018-12-14T04:56:47.757Z,5.10
2018-12-14T04:59:18.471Z,5.10
2018-12-14T05:01:49.087Z,5.10
2018-12-14T05:04:19.896Z,5.20
2018-12-14T05:06:50.617Z,5.10
2018-12-14T05:09:21.567Z,5.10
2018-12-14T05:11:52.279Z,5.10
2018-12-14T05:14:24.332Z,5.10
2018-12-14T05:16:55.052Z,5.20
2018-12-14T05:19:25.831Z,5.10
2018-12-14T05:21:57.463Z,5.20
2018-12-14T05:24:28.141Z,5.10
2018-12-14T05:26:59.495Z,5.10
2018-12-14T05:29:30.453Z,5.10
2018-12-14T05:32:01.228Z,5.20
2018-12-14T05:34:33.196Z,5.20
2018-12-14T05:37:04.086Z,5.20
2018-12-14T05:39:36.374Z,5.20
2018-12-14T05:42:07.294Z,5.10
2018-12-14T05:44:38.387Z,5.10
2018-12-14T05:47:09.023Z,5.20
2018-12-14T05:49:39.841Z,5.20
2018-12-14T05:52:10.881Z,5.20
2018-12-14T05:54:42.867Z,5.20
2018-12-14T05:57:14.101Z,5.20
2018-12-14T05:59:45.288Z,5.20
2018-12-14T06:02:16.422Z,5.20
2018-12-14T06:04:48.310Z,5.20
2018-12-14T06:07:19.113Z,5.20
2018-12-14T06:09:50.372Z,5.20
2018-12-14T06:12:22.202Z,5.20
2018-12-14T06:14:53.078Z,5.20
2018-12-14T06:17:23.887Z,5.20
2018-12-14T06:19:54.568Z,5.30
2018-12-14T06:22:25.318Z,5.20
2018-12-14T06:24:56.441Z,5.30
2018-12-14T06:27:27.975Z,5.20
2018-12-14T06:29:58.980Z,5.30
2018-12-14T06:32:30.103Z,5.30
2018-12-14T06:35:00.945Z,5.30
2018-12-14T06:37:32.267Z,5.30
2018-12-14T06:40:03.215Z,5.20
2018-12-14T06:42:33.951Z,5.30
2018-12-14T06:45:07.227Z,5.30
2018-12-14T06:47:38.642Z,5.40
2018-12-14T06:50:09.481Z,5.30
2018-12-14T06:52:40.688Z,5.30
2018-12-14T06:55:11.431Z,5.30
2018-12-14T06:57:42.339Z,5.40
2018-12-14T07:00:13.542Z,5.40
2018-12-14T07:02:44.340Z,5.40
2018-12-14T07:05:15.100Z,5.40
2018-12-14T07:07:45.838Z,5.40
2018-12-14T07:10:16.711Z,5.40
2018-12-14T07:12:50.727Z,5.40
2018-12-14T07:15:21.646Z,5.50
2018-12-14T07:17:52.738Z,5.50
2018-12-14T07:20:23.557Z,5.50
2018-12-14T07:22:54.252Z,5.50
2018-12-14T07:25:25.164Z,5.50
2018-12-14T07:27:55.887Z,5.50
2018-12-14T07:30:26.718Z,5.50
2018-12-14T07:32:57.546Z,5.50
2018-12-14T07:35:28.190Z,5.50
2018-12-14T07:37:58.881Z,5.50
2018-12-14T07:40:29.772Z,5.60
2018-12-14T07:43:00.564Z,5.50
2018-12-14T07:45:31.456Z,5.50
2018-12-14T07:48:02.164Z,5.50
2018-12-14T07:50:33.133Z,5.50
2018-12-14T07:53:09.184Z,5.60
2018-12-14T07:55:36.663Z,5.60
2018-12-14T07:58:07.447Z,5.60
2018-12-14T08:00:38.307Z,5.60
2018-12-14T08:03:09.095Z,5.60
2018-12-14T08:05:40.652Z,5.60
2018-12-14T08:08:11.339Z,5.60
2018-12-14T08:10:42.228Z,5.60
2018-12-14T08:13:13.659Z,5.60
2018-12-14T08:15:44.505Z,5.60
2018-12-14T08:18:15.256Z,5.60
2018-12-14T08:20:46.350Z,5.60
2018-12-14T08:23:17.215Z,5.60
2018-12-14T08:25:47.880Z,5.60
2018-12-14T08:28:18.603Z,5.70
2018-12-14T08:30:49.851Z,5.70
2018-12-14T08:33:21.074Z,5.70
2018-12-14T08:35:51.792Z,5.70
2018-12-14T08:38:22.526Z,5.70
2018-12-14T08:40:53.684Z,5.70
2018-12-14T08:43:25.008Z,5.80
2018-12-14T08:45:55.896Z,5.80
2018-12-14T08:48:28.501Z,5.80
2018-12-14T08:50:59.384Z,5.80
2018-12-14T08:53:30.897Z,5.80
2018-12-14T08:56:01.777Z,5.80
2018-12-14T08:58:32.875Z,5.80
2018-12-14T09:01:03.765Z,4.80
2018-12-14T09:03:34.478Z,5.70
2018-12-14T09:06:05.233Z,5.80
2018-12-14T09:08:36.850Z,5.80
2018-12-14T09:11:07.868Z,5.80
2018-12-14T09:13:39.053Z,5.80
2018-12-14T09:16:10.006Z,5.80
2018-12-14T09:18:40.914Z,5.80
2018-12-14T09:21:11.712Z,5.80
2018-12-14T09:23:42.965Z,5.90
2018-12-14T09:26:14.232Z,5.90
2018-12-14T09:28:45.326Z,5.90
2018-12-14T09:31:17.550Z,5.90
2018-12-14T09:33:48.320Z,5.90
2018-12-14T09:36:19.031Z,6.00
2018-12-14T09:38:49.791Z,6.00
2018-12-14T09:41:20.577Z,6.30
2018-12-14T09:43:54.324Z,6.00
2018-12-14T09:46:24.108Z,6.10
2018-12-14T09:48:54.951Z,6.10
2018-12-14T09:51:25.725Z,6.10
2018-12-14T09:53:56.889Z,6.10
2018-12-14T09:56:27.869Z,6.10
2018-12-14T09:58:58.974Z,6.20
2018-12-14T10:01:29.784Z,6.20
2018-12-14T10:04:00.609Z,6.20
2018-12-14T10:06:31.386Z,6.30
2018-12-14T10:09:02.212Z,6.30
2018-12-14T10:11:32.907Z,6.30
2018-12-14T10:14:03.601Z,6.40
2018-12-14T10:16:34.271Z,6.30
2018-12-14T10:19:06.173Z,6.40
2018-12-14T10:21:36.942Z,6.40
2018-12-14T10:24:07.788Z,6.40
2018-12-14T10:26:38.637Z,6.50
2018-12-14T10:29:09.724Z,6.40
2018-12-14T10:31:40.564Z,6.40
2018-12-14T10:34:11.576Z,6.40
2018-12-14T10:36:42.673Z,6.50
2018-12-14T10:39:13.555Z,6.50
2018-12-14T10:41:44.427Z,6.50
2018-12-14T10:44:15.885Z,6.50
2018-12-14T10:46:46.803Z,6.50
2018-12-14T10:49:17.553Z,6.50
2018-12-14T10:51:48.758Z,6.50
2018-12-14T10:54:20.739Z,6.50
2018-12-14T10:56:52.018Z,6.50
2018-12-14T10:59:23.276Z,6.60
2018-12-14T11:01:57.399Z,6.60
2018-12-14T11:04:28.169Z,4.90
2018-12-14T11:06:59.618Z,6.60
2018-12-14T11:09:30.490Z,6.60
2018-12-14T11:12:02.294Z,6.70
2018-12-14T11:14:33.846Z,6.70
2018-12-14T11:17:05.456Z,6.60
2018-12-14T11:19:36.221Z,6.70
2018-12-14T11:22:07.244Z,6.70
2018-12-14T11:24:37.923Z,6.70
2018-12-14T11:27:09.033Z,6.70
2018-12-14T11:29:39.972Z,6.70
2018-12-14T11:32:10.767Z,6.70
2018-12-14T11:34:42.773Z,6.70
2018-12-14T11:37:13.580Z,6.70
2018-12-14T11:39:44.481Z,6.70
2018-12-14T11:42:15.357Z,6.70
2018-12-14T11:44:47.523Z,6.70
2018-12-14T11:47:18.439Z,6.80
2018-12-14T11:49:49.435Z,6.70
2018-12-14T11:52:21.429Z,6.70
2018-12-14T11:54:52.524Z,6.70
2018-12-14T11:57:23.479Z,6.80
2018-12-14T11:59:54.449Z,6.60
2018-12-14T12:02:25.323Z,6.70
2018-12-14T12:04:56.059Z,6.70
2018-12-14T12:07:26.861Z,6.70
2018-12-14T12:09:57.758Z,6.70
2018-12-14T12:12:28.531Z,6.70
2018-12-14T12:14:59.465Z,6.70
2018-12-14T12:17:31.403Z,6.70
2018-12-14T12:20:02.221Z,6.70
2018-12-14T12:22:32.970Z,8.50
2018-12-14T12:25:05.512Z,6.70
2018-12-14T12:27:36.311Z,6.70
2018-12-14T12:30:10.190Z,6.80
2018-12-14T12:32:40.925Z,6.70
2018-12-14T12:35:13.046Z,6.80
2018-12-14T12:37:43.879Z,6.80
2018-12-14T12:40:14.846Z,6.80
2018-12-14T12:42:46.138Z,6.80
2018-12-14T12:45:17.219Z,6.70
2018-12-14T12:47:48.103Z,6.70
2018-12-14T12:50:19.015Z,6.70
2018-12-14T12:52:49.864Z,6.70
2018-12-14T12:55:20.676Z,6.70
2018-12-14T12:57:51.472Z,6.60
2018-12-14T13:00:22.688Z,6.70
2018-12-14T13:02:53.620Z,6.70
2018-12-14T13:05:24.523Z,6.60
2018-12-14T13:07:55.774Z,6.60
2018-12-14T13:10:26.468Z,6.60
2018-12-14T13:12:57.364Z,6.60
2018-12-14T13:15:28.136Z,6.60
2018-12-14T13:17:59.455Z,6.60
2018-12-14T13:20:30.267Z,6.60
2018-12-14T13:23:01.049Z,6.60
2018-12-14T13:25:32.189Z,6.60
2018-12-14T13:28:04.171Z,6.60
2018-12-14T13:30:35.691Z,6.60
2018-12-14T13:33:07.052Z,6.50
2018-12-14T13:35:37.874Z,6.60
2018-12-14T13:38:08.629Z,6.50
2018-12-14T13:40:40.119Z,6.60
2018-12-14T13:43:11.496Z,6.50
2018-12-14T13:45:42.764Z,6.60
2018-12-14T13:48:13.837Z,6.60
2018-12-14T13:50:44.904Z,6.50
2018-12-14T13:53:15.798Z,6.60
2018-12-14T13:55:46.723Z,6.50
2018-12-14T13:58:17.452Z,6.50
2018-12-14T14:00:50.276Z,6.50
2018-12-14T14:03:21.856Z,6.50
2018-12-14T14:05:52.956Z,6.50
2018-12-14T14:08:23.835Z,6.50
2018-12-14T14:10:54.715Z,6.50
2018-12-14T14:13:25.657Z,6.50
2018-12-14T14:15:56.515Z,6.50
2018-12-14T14:18:27.269Z,6.50
2018-12-14T14:20:57.990Z,6.50
2018-12-14T14:23:29.097Z,6.50
2018-12-14T14:25:59.859Z,6.60
2018-12-14T14:28:30.865Z,6.50
2018-12-14T14:31:01.974Z,6.50
2018-12-14T14:33:32.911Z,6.50
2018-12-14T14:36:04.211Z,6.50
2018-12-14T14:38:35.348Z,6.40
2018-12-14T14:41:06.688Z,6.40
2018-12-14T14:43:37.683Z,6.40
2018-12-14T14:46:08.655Z,6.40
2018-12-14T14:48:40.752Z,6.40
2018-12-14T14:51:12.112Z,6.40
2018-12-14T14:53:43.769Z,6.40
2018-12-14T14:56:14.559Z,6.40
2018-12-14T14:58:45.472Z,6.40
2018-12-14T15:01:16.480Z,6.40
2018-12-14T15:03:47.522Z,6.40
2018-12-14T15:06:18.311Z,6.30
2018-12-14T15:08:49.126Z,6.30
2018-12-14T15:11:20.262Z,6.30
2018-12-14T15:13:51.200Z,6.50
2018-12-14T15:16:23.443Z,6.30
2018-12-14T15:18:54.591Z,6.20
2018-12-14T15:21:25.436Z,6.20
2018-12-14T15:23:56.408Z,6.20
2018-12-14T15:26:27.415Z,6.20
2018-12-14T15:28:58.294Z,6.20
2018-12-14T15:31:29.466Z,6.30
2018-12-14T15:34:00.304Z,6.20
2018-12-14T15:36:31.121Z,6.20
2018-12-14T15:39:01.890Z,6.20
2018-12-14T15:41:32.616Z,6.20
2018-12-14T15:44:03.483Z,6.20
2018-12-14T15:46:34.531Z,6.20
2018-12-14T15:49:06.755Z,6.20
2018-12-14T15:51:37.656Z,6.20
2018-12-14T15:54:08.396Z,6.20
2018-12-14T15:56:40.201Z,6.20
2018-12-14T15:59:11.066Z,6.20
2018-12-14T16:01:42.837Z,6.20
2018-12-14T16:04:19.826Z,6.20
2018-12-14T16:06:50.735Z,6.20
2018-12-14T16:09:21.703Z,6.10
2018-12-14T16:11:52.684Z,6.10
2018-12-14T16:14:23.903Z,6.10
2018-12-14T16:16:54.789Z,6.10
2018-12-14T16:19:25.870Z,6.10
2018-12-14T16:21:57.813Z,6.10
2018-12-14T16:24:28.834Z,6.10
2018-12-14T16:26:59.756Z,6.10
2018-12-14T16:29:30.796Z,6.10
2018-12-14T16:32:03.187Z,6.10
2018-12-14T16:34:34.277Z,6.10
2018-12-14T16:37:05.464Z,6.10
2018-12-14T16:39:36.973Z,6.10
2018-12-14T16:42:07.734Z,6.20
2018-12-14T16:44:38.615Z,6.10
2018-12-14T16:47:09.734Z,6.10
2018-12-14T16:49:40.686Z,6.20
2018-12-14T16:52:11.982Z,6.10
2018-12-14T16:54:42.849Z,6.10
2018-12-14T16:57:13.910Z,6.10
2018-12-14T16:59:46.218Z,6.20
2018-12-14T17:02:17.780Z,6.20
2018-12-14T17:04:50.480Z,6.20
2018-12-14T17:07:21.412Z,6.10
2018-12-14T17:09:52.699Z,6.20
2018-12-14T17:12:23.475Z,6.20
2018-12-14T17:14:55.585Z,6.20
2018-12-14T17:17:28.317Z,6.20
2018-12-14T17:19:59.121Z,6.20
2018-12-14T17:22:30.268Z,6.20
2018-12-14T17:25:01.332Z,6.20
2018-12-14T17:27:33.514Z,6.20
2018-12-14T17:30:06.572Z,6.20
2018-12-14T17:32:37.435Z,6.10
2018-12-14T17:35:09.550Z,6.20
2018-12-14T17:37:40.588Z,5.50
2018-12-14T17:40:12.481Z,6.20
2018-12-14T17:42:43.268Z,6.20
2018-12-14T17:45:14.560Z,6.20
2018-12-14T17:47:45.727Z,6.20
2018-12-14T17:50:16.558Z,6.20
2018-12-14T17:52:47.482Z,6.20
2018-12-14T17:55:18.667Z,6.10
2018-12-14T17:57:50.986Z,6.20
2018-12-14T18:00:23.094Z,6.10
2018-12-14T18:02:53.968Z,6.20
2018-12-14T18:05:25.465Z,6.20
2018-12-14T18:07:56.460Z,6.20
2018-12-14T18:10:27.816Z,6.20
2018-12-14T18:12:58.973Z,6.20
2018-12-14T18:15:29.879Z,6.30
2018-12-14T18:18:00.931Z,6.20
2018-12-14T18:20:31.946Z,6.20
2018-12-14T18:23:02.785Z,6.20
2018-12-14T18:25:33.938Z,6.20
2018-12-14T18:28:04.824Z,6.20
2018-12-14T18:30:35.643Z,6.20
2018-12-14T18:33:07.030Z,6.20
2018-12-14T18:35:37.975Z,6.20
2018-12-14T18:38:09.289Z,6.20
2018-12-14T18:40:40.165Z,6.20
2018-12-14T18:43:10.973Z,6.20
2018-12-14T18:45:41.715Z,6.20
2018-12-14T18:48:12.631Z,6.20
2018-12-14T18:50:43.730Z,6.20
2018-12-14T18:53:14.504Z,6.20
2018-12-14T18:55:45.851Z,6.20
2018-12-14T18:58:16.745Z,6.20
2018-12-14T19:00:47.740Z,6.20
2018-12-14T19:03:18.677Z,6.20
2018-12-14T19:05:49.757Z,6.20
2018-12-14T19:08:20.770Z,6.20
2018-12-14T19:10:51.644Z,6.20
2018-12-14T19:13:22.712Z,6.20
2018-12-14T19:15:59.434Z,6.20
2018-12-14T19:18:27.238Z,6.20
2018-12-14T19:20:58.179Z,6.20
2018-12-14T19:23:30.918Z,6.20
2018-12-14T19:26:02.710Z,6.20
2018-12-14T19:28:33.783Z,6.20
2018-12-14T19:31:04.720Z,6.20
2018-12-14T19:33:35.990Z,6.20
2018-12-14T19:36:06.906Z,6.20
2018-12-14T19:38:37.728Z,6.20
2018-12-14T19:41:08.583Z,6.20
2018-12-14T19:43:39.578Z,6.20
2018-12-14T19:46:10.489Z,6.20
2018-12-14T19:48:41.316Z,6.20
2018-12-14T19:51:12.595Z,6.20
2018-12-14T19:53:43.757Z,6.20
2018-12-14T19:56:14.571Z,6.20
2018-12-14T19:58:45.657Z,6.20
2018-12-14T20:01:16.578Z,6.20
2018-12-14T20:03:47.785Z,6.20
2018-12-14T20:06:18.780Z,6.20
2018-12-14T20:08:49.943Z,6.20
2018-12-14T20:11:21.750Z,6.20
2018-12-14T20:13:52.568Z,6.10
2018-12-14T20:16:23.393Z,6.10
2018-12-14T20:18:54.286Z,6.10
2018-12-14T20:21:25.315Z,6.10
2018-12-14T20:23:56.308Z,6.10
2018-12-14T20:26:27.323Z,6.10
2018-12-14T20:28:58.627Z,6.10
2018-12-14T20:31:29.431Z,6.20
2018-12-14T20:34:00.319Z,6.10
2018-12-14T20:36:31.638Z,6.10
2018-12-14T20:39:02.767Z,6.10
2018-12-14T20:41:33.920Z,6.10
2018-12-14T20:44:05.544Z,6.00
2018-12-14T20:46:36.325Z,6.00
2018-12-14T20:49:07.557Z,6.00
2018-12-14T20:51:38.895Z,5.90
2018-12-14T20:54:09.889Z,5.90
2018-12-14T20:56:42.046Z,5.80
2018-12-14T20:59:13.095Z,5.80
2018-12-14T21:01:44.015Z,5.80
2018-12-14T21:04:15.098Z,5.80
2018-12-14T21:06:46.618Z,5.80
2018-12-14T21:09:17.763Z,7.10
2018-12-14T21:11:48.699Z,5.80
2018-12-14T21:14:20.511Z,5.80
2018-12-14T21:16:52.015Z,5.80
2018-12-14T21:19:22.940Z,5.80
2018-12-14T21:21:54.009Z,5.80
2018-12-14T21:24:25.561Z,5.80
2018-12-14T21:26:56.941Z,5.80
2018-12-14T21:29:27.957Z,5.70
2018-12-14T21:31:58.750Z,5.70
2018-12-14T21:34:29.820Z,5.70
2018-12-14T21:37:00.876Z,5.70
2018-12-14T21:39:31.733Z,5.40
2018-12-14T21:42:02.650Z,5.60
2018-12-14T21:44:33.798Z,5.60
2018-12-14T21:47:04.835Z,5.60
2018-12-14T21:49:36.736Z,5.60
2018-12-14T21:52:07.627Z,5.60
2018-12-14T21:54:38.513Z,5.60
2018-12-14T21:57:09.455Z,5.60
2018-12-14T21:59:40.398Z,5.60
2018-12-14T22:02:11.441Z,5.60
2018-12-14T22:04:42.460Z,5.60
2018-12-14T22:07:13.593Z,5.60
2018-12-14T22:09:44.639Z,5.60
2018-12-14T22:12:15.551Z,5.60
2018-12-14T22:14:46.666Z,5.60
2018-12-14T22:17:17.599Z,5.60
2018-12-14T22:19:48.559Z,5.50
2018-12-14T22:22:20.597Z,5.50
2018-12-14T22:24:52.306Z,5.50
2018-12-14T22:27:23.180Z,5.40
2018-12-14T22:29:55.311Z,5.40
2018-12-14T22:32:26.352Z,5.40
2018-12-14T22:34:57.882Z,5.40
2018-12-14T22:37:28.658Z,5.40
2018-12-14T22:39:59.540Z,5.40
2018-12-14T22:42:30.567Z,5.40
2018-12-14T22:45:02.590Z,5.40
2018-12-14T22:47:33.786Z,5.40
2018-12-14T22:50:05.861Z,5.40
2018-12-14T22:52:36.557Z,5.40
2018-12-14T22:55:08.268Z,5.40
2018-12-14T22:57:39.395Z,5.40
2018-12-14T23:00:19.023Z,5.40
2018-12-14T23:02:50.515Z,5.40
2018-12-14T23:05:22.025Z,5.40
2018-12-14T23:07:52.995Z,5.40
2018-12-14T23:10:23.945Z,5.40
2018-12-14T23:12:54.967Z,5.40
2018-12-14T23:15:25.904Z,5.30
2018-12-14T23:17:56.954Z,5.30
2018-12-14T23:20:28.054Z,5.30
2018-12-14T23:22:59.504Z,5.30
2018-12-14T23:25:30.436Z,5.30
2018-12-14T23:28:01.176Z,5.30
2018-12-14T23:30:32.012Z,5.20
2018-12-14T23:33:03.423Z,5.30
2018-12-14T23:35:34.531Z,5.30
2018-12-14T23:38:07.318Z,5.20
2018-12-14T23:40:38.213Z,5.20
2018-12-14T23:43:09.059Z,5.20
2018-12-14T23:45:39.925Z,5.30
2018-12-14T23:48:10.646Z,5.30
2018-12-14T23:50:41.433Z,5.20
2018-12-14T23:53:12.384Z,5.30
2018-12-14T23:55:43.320Z,5.30
2018-12-14T23:58:14.087Z,5.30
